Shikra Naval Helibase

IN-0021 · 马哈拉施特拉邦, 印度

罗盘
风向 的 风向 270° 直升机
风: 5 kt, 2 beaufort
0 ft 2.000 4.000 6.000 8.000 10.000
Cloud Cloud Cloud Cloud
SCT 1.500
Cloud Cloud
FEW 2.500
Cloud Cloud Cloud Cloud Cloud Cloud Cloud Cloud
OVC 8.000
METAR VABB 141230Z 27005KT 3000 HZ SCT015 FEW025TCU OVC080 29/26 Q0999 NOSIG

METAR Shikra Naval Helibase - IN-0021

Shikra Naval Helibase是,印度中的直升机场。 该机场位于纬度18,91335和经度72,82921。 这个机场没有ICAO代码,我们使用IN-0021作为参考。 机场在Mumbai FIR中。

该航空气象观测是针对贾特拉帕蒂·希瓦吉国际机场在2024年7月14日 18:00, 当地时间进行的。

机场观察

风向为270°,速度为5 kt。

可见度为3 km。

有疏云,零星散落的云朵在1.500 ft的高度, 几云 高耸的积云在2.500 ft的高度 和 乌云密布在8.000 ft的高度。 破损或更高的上限为8.000 ft。

当前天气为阴霾。 温度和风寒是29 °C。 热指数为36。 露点为26 °C,相对湿度为84%。 海平面上的气压为999 hPa (QNH)。

白天

今天,太阳从06:09升起,在19:19降落。 这适用于Shikra Naval Helibase,世界夏令时可能有所不同。 当地时间与世界标准时间之间的时差为+5 小时 30 分钟。 夏令时目前正在进行中。

公司介绍

我们没有关于这个机场的公司信息。

体会

到Vliegles.nl去找飞行课程,跳伞和其他飞行体验。 浏览页面,了解Shikra Naval Helibase附近所有可用的活动。 你也可以使用搜索功能来寻找你所在地附近的特定飞行课程、跳伞或其他飞行体验。

乌云

1.500 ft SCT 疏云,零星散落的云朵
2.500 ft FEW 几云 高耸的积云
8.000 ft OVC 乌云密布

温度 & 天气

天气 阴霾
温度 29 °C
露点 26 °C
相对湿度 84%
热度指数 36 °C
Kp-index 1 (0-9)

白天

日出
06:09
中午
12:44
日落
19:19 (54m)

小工具

你想在你的网站上有一个关于Shikra Naval Helibase的当前航空天气(METAR)的小部件吗?

显示HTML代码
报告变更